sensor_id;sensor_type;location;lat;lon;timestamp;temperature;humidity
41838;DHT22;27511;52.042;5.178;2024-03-23T00:52:47;10.40;99.90
41838;DHT22;27511;52.042;5.178;2024-03-23T00:55:13;10.50;99.90
41838;DHT22;27511;52.042;5.178;2024-03-23T00:57:38;10.70;99.90
41838;DHT22;27511;52.042;5.178;2024-03-23T01:00:05;10.80;99.90
41838;DHT22;27511;52.042;5.178;2024-03-23T01:02:32;10.70;99.90
41838;DHT22;27511;52.042;5.178;2024-03-23T01:04:58;10.60;99.90
41838;DHT22;27511;52.042;5.178;2024-03-23T01:07:23;10.70;99.90
41838;DHT22;27511;52.042;5.178;2024-03-23T01:09:49;10.60;99.90
41838;DHT22;27511;52.042;5.178;2024-03-23T01:12:14;10.70;99.90
41838;DHT22;27511;52.042;5.178;2024-03-23T01:14:40;10.80;99.90
41838;DHT22;27511;52.042;5.178;2024-03-23T01:17:05;10.70;99.90
41838;DHT22;27511;52.042;5.178;2024-03-23T01:19:31;10.60;99.90
41838;DHT22;27511;52.042;5.178;2024-03-23T01:21:57;10.40;99.90
41838;DHT22;27511;52.042;5.178;2024-03-23T01:24:22;10.30;99.90
41838;DHT22;27511;52.042;5.178;2024-03-23T01:26:48;10.30;99.90
41838;DHT22;27511;52.042;5.178;2024-03-23T01:29:13;10.40;99.90
41838;DHT22;27511;52.042;5.178;2024-03-23T01:31:39;10.40;99.90
41838;DHT22;27511;52.042;5.178;2024-03-23T01:34:04;10.30;99.90
41838;DHT22;27511;52.042;5.178;2024-03-23T01:36:30;10.40;99.90
41838;DHT22;27511;52.042;5.178;2024-03-23T01:38:55;10.50;99.90
41838;DHT22;27511;52.042;5.178;2024-03-23T01:41:21;10.40;99.90
41838;DHT22;27511;52.042;5.178;2024-03-23T01:43:46;10.40;99.90
41838;DHT22;27511;52.042;5.178;2024-03-23T01:46:13;10.50;99.90
41838;DHT22;27511;52.042;5.178;2024-03-23T01:48:38;10.20;99.90
41838;DHT22;27511;52.042;5.178;2024-03-23T01:51:04;10.10;99.90
41838;DHT22;27511;52.042;5.178;2024-03-23T01:53:30;9.90;99.90
41838;DHT22;27511;52.042;5.178;2024-03-23T01:55:56;9.90;99.90
41838;DHT22;27511;52.042;5.178;2024-03-23T01:58:22;9.90;99.90
41838;DHT22;27511;52.042;5.178;2024-03-23T02:00:48;9.80;99.90
41838;DHT22;27511;52.042;5.178;2024-03-23T02:03:33;9.80;99.90
41838;DHT22;27511;52.042;5.178;2024-03-23T02:05:59;9.80;99.90
41838;DHT22;27511;52.042;5.178;2024-03-23T02:08:25;9.70;99.90
41838;DHT22;27511;52.042;5.178;2024-03-23T02:10:51;9.50;99.90
41838;DHT22;27511;52.042;5.178;2024-03-23T02:13:18;9.30;99.90
41838;DHT22;27511;52.042;5.178;2024-03-23T02:15:44;9.10;99.90
41838;DHT22;27511;52.042;5.178;2024-03-23T02:18:10;9.10;99.90
41838;DHT22;27511;52.042;5.178;2024-03-23T02:20:36;9.10;99.90
41838;DHT22;27511;52.042;5.178;2024-03-23T02:23:02;9.10;99.90
41838;DHT22;27511;52.042;5.178;2024-03-23T02:25:28;9.10;99.90
41838;DHT22;27511;52.042;5.178;2024-03-23T02:27:54;9.10;99.90
41838;DHT22;27511;52.042;5.178;2024-03-23T02:30:21;8.90;99.90
41838;DHT22;27511;52.042;5.178;2024-03-23T02:32:47;9.00;99.90
41838;DHT22;27511;52.042;5.178;2024-03-23T02:35:12;9.00;99.90
41838;DHT22;27511;52.042;5.178;2024-03-23T02:37:38;8.90;99.90
41838;DHT22;27511;52.042;5.178;2024-03-23T02:40:04;8.90;99.90
41838;DHT22;27511;52.042;5.178;2024-03-23T02:42:30;8.90;99.90
41838;DHT22;27511;52.042;5.178;2024-03-23T02:44:56;9.00;99.90
41838;DHT22;27511;52.042;5.178;2024-03-23T02:47:22;9.00;99.90
41838;DHT22;27511;52.042;5.178;2024-03-23T02:49:48;8.90;99.90
41838;DHT22;27511;52.042;5.178;2024-03-23T02:52:13;8.80;99.90
41838;DHT22;27511;52.042;5.178;2024-03-23T02:54:39;9.00;99.90
41838;DHT22;27511;52.042;5.178;2024-03-23T02:57:04;9.20;99.90
41838;DHT22;27511;52.042;5.178;2024-03-23T02:59:30;9.20;99.90
41838;DHT22;27511;52.042;5.178;2024-03-23T03:01:55;9.20;99.90
41838;DHT22;27511;52.042;5.178;2024-03-23T03:04:21;8.90;99.90
41838;DHT22;27511;52.042;5.178;2024-03-23T03:06:47;8.90;99.90
41838;DHT22;27511;52.042;5.178;2024-03-23T03:09:13;9.00;99.90
41838;DHT22;27511;52.042;5.178;2024-03-23T03:11:38;9.20;99.90
41838;DHT22;27511;52.042;5.178;2024-03-23T03:14:04;9.50;99.90
41838;DHT22;27511;52.042;5.178;2024-03-23T03:16:29;9.80;99.90
41838;DHT22;27511;52.042;5.178;2024-03-23T03:18:55;10.00;99.90
41838;DHT22;27511;52.042;5.178;2024-03-23T03:21:21;10.20;99.90
41838;DHT22;27511;52.042;5.178;2024-03-23T03:23:47;10.30;99.90
41838;DHT22;27511;52.042;5.178;2024-03-23T03:26:18;10.50;99.90
41838;DHT22;27511;52.042;5.178;2024-03-23T03:28:44;10.60;99.90
41838;DHT22;27511;52.042;5.178;2024-03-23T03:31:14;10.60;99.90
41838;DHT22;27511;52.042;5.178;2024-03-23T03:33:40;10.70;99.90
41838;DHT22;27511;52.042;5.178;2024-03-23T03:36:06;10.80;99.90
41838;DHT22;27511;52.042;5.178;2024-03-23T03:38:31;10.70;99.90
41838;DHT22;27511;52.042;5.178;2024-03-23T03:40:57;10.80;99.90
41838;DHT22;27511;52.042;5.178;2024-03-23T03:43:24;10.70;99.90
41838;DHT22;27511;52.042;5.178;2024-03-23T03:45:54;10.70;99.90
41838;DHT22;27511;52.042;5.178;2024-03-23T03:48:20;10.60;99.90
41838;DHT22;27511;52.042;5.178;2024-03-23T03:50:45;10.60;99.90
41838;DHT22;27511;52.042;5.178;2024-03-23T03:53:11;10.60;99.90
41838;DHT22;27511;52.042;5.178;2024-03-23T03:55:37;10.40;99.90
41838;DHT22;27511;52.042;5.178;2024-03-23T03:58:02;10.30;99.90
41838;DHT22;27511;52.042;5.178;2024-03-23T04:00:28;10.10;99.90
41838;DHT22;27511;52.042;5.178;2024-03-23T04:02:53;10.20;99.90
41838;DHT22;27511;52.042;5.178;2024-03-23T04:05:19;10.10;99.90
41838;DHT22;27511;52.042;5.178;2024-03-23T04:07:45;10.00;99.90
41838;DHT22;27511;52.042;5.178;2024-03-23T04:10:11;9.90;99.90
41838;DHT22;27511;52.042;5.178;2024-03-23T04:12:37;9.90;99.90
41838;DHT22;27511;52.042;5.178;2024-03-23T04:15:03;10.00;99.90
41838;DHT22;27511;52.042;5.178;2024-03-23T04:17:30;10.10;99.90
41838;DHT22;27511;52.042;5.178;2024-03-23T04:19:58;10.10;99.90
41838;DHT22;27511;52.042;5.178;2024-03-23T04:22:24;10.00;99.90
41838;DHT22;27511;52.042;5.178;2024-03-23T04:24:55;10.00;99.90
41838;DHT22;27511;52.042;5.178;2024-03-23T04:27:21;10.00;99.90
41838;DHT22;27511;52.042;5.178;2024-03-23T04:29:50;10.00;99.90
41838;DHT22;27511;52.042;5.178;2024-03-23T04:32:16;9.90;99.90
41838;DHT22;27511;52.042;5.178;2024-03-23T04:34:43;9.90;99.90
41838;DHT22;27511;52.042;5.178;2024-03-23T04:37:09;9.90;99.90
41838;DHT22;27511;52.042;5.178;2024-03-23T04:39:38;9.70;99.90
41838;DHT22;27511;52.042;5.178;2024-03-23T04:42:04;9.80;99.90
41838;DHT22;27511;52.042;5.178;2024-03-23T04:44:30;9.70;99.90
41838;DHT22;27511;52.042;5.178;2024-03-23T04:46:57;9.40;99.90
41838;DHT22;27511;52.042;5.178;2024-03-23T04:49:22;9.00;99.90
41838;DHT22;27511;52.042;5.178;2024-03-23T04:51:48;9.10;99.90
41838;DHT22;27511;52.042;5.178;2024-03-23T04:54:14;9.10;99.90
41838;DHT22;27511;52.042;5.178;2024-03-23T04:56:39;8.90;99.90
41838;DHT22;27511;52.042;5.178;2024-03-23T04:59:05;8.90;99.90
41838;DHT22;27511;52.042;5.178;2024-03-23T05:01:31;8.80;99.90
41838;DHT22;27511;52.042;5.178;2024-03-23T05:03:57;8.70;99.90
41838;DHT22;27511;52.042;5.178;2024-03-23T05:06:24;8.60;99.90
41838;DHT22;27511;52.042;5.178;2024-03-23T05:08:49;8.40;99.90
41838;DHT22;27511;52.042;5.178;2024-03-23T05:11:15;8.50;99.90
41838;DHT22;27511;52.042;5.178;2024-03-23T05:13:41;8.50;99.90
41838;DHT22;27511;52.042;5.178;2024-03-23T05:16:07;8.50;99.90
41838;DHT22;27511;52.042;5.178;2024-03-23T05:18:34;8.70;99.90
41838;DHT22;27511;52.042;5.178;2024-03-23T05:20:59;8.80;99.90
41838;DHT22;27511;52.042;5.178;2024-03-23T05:23:26;8.90;99.90
41838;DHT22;27511;52.042;5.178;2024-03-23T05:25:52;9.00;99.90
41838;DHT22;27511;52.042;5.178;2024-03-23T05:28:18;9.00;99.90
41838;DHT22;27511;52.042;5.178;2024-03-23T05:30:43;9.00;99.90
41838;DHT22;27511;52.042;5.178;2024-03-23T05:33:09;8.80;99.90
41838;DHT22;27511;52.042;5.178;2024-03-23T05:35:35;8.70;99.90
41838;DHT22;27511;52.042;5.178;2024-03-23T05:38:00;8.70;99.90
41838;DHT22;27511;52.042;5.178;2024-03-23T05:40:26;8.80;99.90
41838;DHT22;27511;52.042;5.178;2024-03-23T05:42:52;8.90;99.90
41838;DHT22;27511;52.042;5.178;2024-03-23T05:45:19;8.80;99.90
41838;DHT22;27511;52.042;5.178;2024-03-23T05:47:45;8.90;99.90
41838;DHT22;27511;52.042;5.178;2024-03-23T05:50:10;9.10;99.90
41838;DHT22;27511;52.042;5.178;2024-03-23T05:52:41;9.20;99.90
41838;DHT22;27511;52.042;5.178;2024-03-23T05:55:09;9.30;99.90
41838;DHT22;27511;52.042;5.178;2024-03-23T05:57:34;9.30;99.90
41838;DHT22;27511;52.042;5.178;2024-03-23T06:00:00;9.10;99.90
41838;DHT22;27511;52.042;5.178;2024-03-23T06:02:25;9.10;99.90
41838;DHT22;27511;52.042;5.178;2024-03-23T06:04:51;9.00;99.90
41838;DHT22;27511;52.042;5.178;2024-03-23T06:07:16;8.80;99.90
41838;DHT22;27511;52.042;5.178;2024-03-23T06:09:42;8.80;99.90
41838;DHT22;27511;52.042;5.178;2024-03-23T06:12:08;8.50;99.90
41838;DHT22;27511;52.042;5.178;2024-03-23T06:14:34;8.50;99.90
41838;DHT22;27511;52.042;5.178;2024-03-23T06:17:00;8.50;99.90
41838;DHT22;27511;52.042;5.178;2024-03-23T06:19:26;8.50;99.90
41838;DHT22;27511;52.042;5.178;2024-03-23T06:21:55;8.40;99.90
41838;DHT22;27511;52.042;5.178;2024-03-23T06:24:24;8.40;99.90
41838;DHT22;27511;52.042;5.178;2024-03-23T06:26:50;8.40;99.90
41838;DHT22;27511;52.042;5.178;2024-03-23T06:29:15;8.40;99.90
41838;DHT22;27511;52.042;5.178;2024-03-23T06:31:41;8.40;99.90
41838;DHT22;27511;52.042;5.178;2024-03-23T06:34:06;8.50;99.90
41838;DHT22;27511;52.042;5.178;2024-03-23T06:36:32;8.50;99.90
41838;DHT22;27511;52.042;5.178;2024-03-23T06:38:58;8.40;99.90
41838;DHT22;27511;52.042;5.178;2024-03-23T06:41:24;8.40;99.90
41838;DHT22;27511;52.042;5.178;2024-03-23T06:43:50;8.10;99.90
41838;DHT22;27511;52.042;5.178;2024-03-23T06:46:16;8.10;99.90
41838;DHT22;27511;52.042;5.178;2024-03-23T06:48:41;8.20;99.90
41838;DHT22;27511;52.042;5.178;2024-03-23T06:51:07;8.30;99.90
41838;DHT22;27511;52.042;5.178;2024-03-23T06:53:40;8.40;99.90
41838;DHT22;27511;52.042;5.178;2024-03-23T06:56:05;8.50;99.90
41838;DHT22;27511;52.042;5.178;2024-03-23T06:58:32;8.50;99.90
41838;DHT22;27511;52.042;5.178;2024-03-23T07:00:58;8.50;99.90
41838;DHT22;27511;52.042;5.178;2024-03-23T07:03:23;8.40;99.90
41838;DHT22;27511;52.042;5.178;2024-03-23T07:05:51;8.40;99.90
41838;DHT22;27511;52.042;5.178;2024-03-23T07:08:16;8.40;99.90
41838;DHT22;27511;52.042;5.178;2024-03-23T07:10:46;8.60;99.90
41838;DHT22;27511;52.042;5.178;2024-03-23T07:13:12;8.60;99.90
41838;DHT22;27511;52.042;5.178;2024-03-23T07:15:37;8.30;99.90
41838;DHT22;27511;52.042;5.178;2024-03-23T07:18:03;8.40;99.90
41838;DHT22;27511;52.042;5.178;2024-03-23T07:20:29;8.40;99.90
41838;DHT22;27511;52.042;5.178;2024-03-23T07:22:56;8.40;99.90
41838;DHT22;27511;52.042;5.178;2024-03-23T07:25:22;8.60;99.90
41838;DHT22;27511;52.042;5.178;2024-03-23T07:27:48;8.60;99.90
41838;DHT22;27511;52.042;5.178;2024-03-23T07:30:14;8.60;99.90
41838;DHT22;27511;52.042;5.178;2024-03-23T07:32:40;8.40;99.90
41838;DHT22;27511;52.042;5.178;2024-03-23T07:35:05;8.50;99.90
41838;DHT22;27511;52.042;5.178;2024-03-23T07:37:31;8.50;99.90
41838;DHT22;27511;52.042;5.178;2024-03-23T07:39:56;8.50;99.90
41838;DHT22;27511;52.042;5.178;2024-03-23T07:42:23;8.50;99.90
41838;DHT22;27511;52.042;5.178;2024-03-23T07:44:48;8.60;99.90
41838;DHT22;27511;52.042;5.178;2024-03-23T07:47:14;8.50;99.90
41838;DHT22;27511;52.042;5.178;2024-03-23T07:49:40;8.60;99.90
41838;DHT22;27511;52.042;5.178;2024-03-23T07:52:06;8.60;99.90
41838;DHT22;27511;52.042;5.178;2024-03-23T07:54:33;8.80;99.90
41838;DHT22;27511;52.042;5.178;2024-03-23T07:56:59;8.90;99.90
41838;DHT22;27511;52.042;5.178;2024-03-23T07:59:24;8.90;99.90
41838;DHT22;27511;52.042;5.178;2024-03-23T08:01:50;8.80;99.90
41838;DHT22;27511;52.042;5.178;2024-03-23T08:04:16;8.80;99.90
41838;DHT22;27511;52.042;5.178;2024-03-23T08:06:41;8.60;99.90
41838;DHT22;27511;52.042;5.178;2024-03-23T08:09:07;8.70;99.90
41838;DHT22;27511;52.042;5.178;2024-03-23T08:11:33;8.70;99.90
41838;DHT22;27511;52.042;5.178;2024-03-23T08:14:00;8.60;99.90
41838;DHT22;27511;52.042;5.178;2024-03-23T08:16:26;8.50;99.90
41838;DHT22;27511;52.042;5.178;2024-03-23T08:18:53;8.30;99.90
41838;DHT22;27511;52.042;5.178;2024-03-23T08:21:18;8.20;99.90
41838;DHT22;27511;52.042;5.178;2024-03-23T08:23:44;8.30;99.90
41838;DHT22;27511;52.042;5.178;2024-03-23T08:26:11;8.50;99.90
41838;DHT22;27511;52.042;5.178;2024-03-23T08:28:38;8.60;99.90
41838;DHT22;27511;52.042;5.178;2024-03-23T08:31:06;8.80;99.90
41838;DHT22;27511;52.042;5.178;2024-03-23T08:33:32;8.80;99.90
41838;DHT22;27511;52.042;5.178;2024-03-23T08:35:59;8.70;99.90
41838;DHT22;27511;52.042;5.178;2024-03-23T08:38:25;8.50;99.90
41838;DHT22;27511;52.042;5.178;2024-03-23T08:41:01;8.70;99.90
41838;DHT22;27511;52.042;5.178;2024-03-23T08:43:30;9.00;99.90
41838;DHT22;27511;52.042;5.178;2024-03-23T08:46:06;9.00;99.90
41838;DHT22;27511;52.042;5.178;2024-03-23T08:48:34;9.50;99.90
41838;DHT22;27511;52.042;5.178;2024-03-23T08:51:07;9.50;99.90
41838;DHT22;27511;52.042;5.178;2024-03-23T08:53:34;9.30;99.90
41838;DHT22;27511;52.042;5.178;2024-03-23T08:56:00;9.00;99.90
41838;DHT22;27511;52.042;5.178;2024-03-23T08:58:27;9.00;99.90
41838;DHT22;27511;52.042;5.178;2024-03-23T09:00:53;9.00;99.90
41838;DHT22;27511;52.042;5.178;2024-03-23T09:03:22;9.10;99.90
41838;DHT22;27511;52.042;5.178;2024-03-23T09:05:47;9.00;99.90
41838;DHT22;27511;52.042;5.178;2024-03-23T09:08:13;9.20;99.90
41838;DHT22;27511;52.042;5.178;2024-03-23T09:10:39;9.30;99.90
41838;DHT22;27511;52.042;5.178;2024-03-23T09:13:04;9.00;99.90
41838;DHT22;27511;52.042;5.178;2024-03-23T09:15:30;8.60;99.90
41838;DHT22;27511;52.042;5.178;2024-03-23T09:17:58;8.50;99.90
41838;DHT22;27511;52.042;5.178;2024-03-23T09:20:24;8.50;99.90
41838;DHT22;27511;52.042;5.178;2024-03-23T09:22:49;8.50;99.90
41838;DHT22;27511;52.042;5.178;2024-03-23T09:25:15;8.50;99.90
41838;DHT22;27511;52.042;5.178;2024-03-23T09:27:41;8.70;99.90
41838;DHT22;27511;52.042;5.178;2024-03-23T09:30:06;9.00;99.90
41838;DHT22;27511;52.042;5.178;2024-03-23T09:32:32;9.20;99.90
41838;DHT22;27511;52.042;5.178;2024-03-23T09:34:58;9.00;99.90
41838;DHT22;27511;52.042;5.178;2024-03-23T09:37:23;8.70;99.90
41838;DHT22;27511;52.042;5.178;2024-03-23T09:39:49;8.80;99.90
41838;DHT22;27511;52.042;5.178;2024-03-23T09:42:14;8.90;99.90
41838;DHT22;27511;52.042;5.178;2024-03-23T09:44:40;9.00;99.90
41838;DHT22;27511;52.042;5.178;2024-03-23T09:47:07;9.00;99.90
41838;DHT22;27511;52.042;5.178;2024-03-23T09:49:33;9.20;99.90
41838;DHT22;27511;52.042;5.178;2024-03-23T09:52:02;9.30;99.90
41838;DHT22;27511;52.042;5.178;2024-03-23T09:54:28;9.00;99.90
41838;DHT22;27511;52.042;5.178;2024-03-23T09:56:53;9.00;99.90
41838;DHT22;27511;52.042;5.178;2024-03-23T09:59:19;9.20;99.90
41838;DHT22;27511;52.042;5.178;2024-03-23T10:01:45;9.00;99.90
41838;DHT22;27511;52.042;5.178;2024-03-23T10:04:11;9.00;99.90
41838;DHT22;27511;52.042;5.178;2024-03-23T10:06:37;9.10;99.90
41838;DHT22;27511;52.042;5.178;2024-03-23T10:09:16;9.00;99.90
41838;DHT22;27511;52.042;5.178;2024-03-23T10:11:43;9.00;99.90
41838;DHT22;27511;52.042;5.178;2024-03-23T10:14:09;9.20;99.90
41838;DHT22;27511;52.042;5.178;2024-03-23T10:16:35;9.00;99.90
41838;DHT22;27511;52.042;5.178;2024-03-23T10:19:00;9.20;99.90
41838;DHT22;27511;52.042;5.178;2024-03-23T10:21:26;9.10;99.90
41838;DHT22;27511;52.042;5.178;2024-03-23T10:23:51;9.10;99.90
41838;DHT22;27511;52.042;5.178;2024-03-23T10:28:57;9.20;99.90
41838;DHT22;27511;52.042;5.178;2024-03-23T10:31:25;9.50;99.90
41838;DHT22;27511;52.042;5.178;2024-03-23T10:33:51;9.70;99.90
41838;DHT22;27511;52.042;5.178;2024-03-23T10:36:23;9.80;99.90
41838;DHT22;27511;52.042;5.178;2024-03-23T10:38:50;9.80;99.90
41838;DHT22;27511;52.042;5.178;2024-03-23T10:41:17;8.90;99.90
41838;DHT22;27511;52.042;5.178;2024-03-23T10:43:45;8.00;99.90
41838;DHT22;27511;52.042;5.178;2024-03-23T10:46:11;7.70;99.90
41838;DHT22;27511;52.042;5.178;2024-03-23T10:48:36;7.70;99.90
41838;DHT22;27511;52.042;5.178;2024-03-23T10:51:03;8.00;99.90
41838;DHT22;27511;52.042;5.178;2024-03-23T10:53:30;8.10;99.90
41838;DHT22;27511;52.042;5.178;2024-03-23T10:55:58;8.30;99.90
41838;DHT22;27511;52.042;5.178;2024-03-23T10:58:36;8.50;99.90
41838;DHT22;27511;52.042;5.178;2024-03-23T11:01:03;8.50;99.90
41838;DHT22;27511;52.042;5.178;2024-03-23T11:03:36;8.30;99.90
41838;DHT22;27511;52.042;5.178;2024-03-23T11:06:03;8.50;99.90
41838;DHT22;27511;52.042;5.178;2024-03-23T11:08:33;8.50;99.90
41838;DHT22;27511;52.042;5.178;2024-03-23T11:11:17;8.60;99.90
41838;DHT22;27511;52.042;5.178;2024-03-23T11:13:44;8.40;99.90
41838;DHT22;27511;52.042;5.178;2024-03-23T11:16:24;8.50;99.90
41838;DHT22;27511;52.042;5.178;2024-03-23T11:18:51;8.50;99.90
41838;DHT22;27511;52.042;5.178;2024-03-23T11:21:51;8.60;99.90
41838;DHT22;27511;52.042;5.178;2024-03-23T11:24:17;8.70;99.90
41838;DHT22;27511;52.042;5.178;2024-03-23T11:26:44;8.80;99.90
41838;DHT22;27511;52.042;5.178;2024-03-23T11:29:15;9.10;99.90
41838;DHT22;27511;52.042;5.178;2024-03-23T11:31:49;9.50;99.90
41838;DHT22;27511;52.042;5.178;2024-03-23T11:34:21;9.90;99.90
41838;DHT22;27511;52.042;5.178;2024-03-23T11:36:47;9.80;99.90
41838;DHT22;27511;52.042;5.178;2024-03-23T11:39:17;9.70;99.90
41838;DHT22;27511;52.042;5.178;2024-03-23T11:41:54;9.70;99.90
41838;DHT22;27511;52.042;5.178;2024-03-23T11:44:25;9.60;99.90
41838;DHT22;27511;52.042;5.178;2024-03-23T11:46:53;9.80;99.90
41838;DHT22;27511;52.042;5.178;2024-03-23T11:49:32;9.80;99.90
41838;DHT22;27511;52.042;5.178;2024-03-23T11:51:58;9.70;99.90
41838;DHT22;27511;52.042;5.178;2024-03-23T11:54:25;9.60;99.90
41838;DHT22;27511;52.042;5.178;2024-03-23T11:57:02;9.40;99.90
41838;DHT22;27511;52.042;5.178;2024-03-23T11:59:39;9.30;99.90
41838;DHT22;27511;52.042;5.178;2024-03-23T12:02:10;9.40;99.90
41838;DHT22;27511;52.042;5.178;2024-03-23T12:04:37;9.40;99.90
41838;DHT22;27511;52.042;5.178;2024-03-23T12:07:21;9.60;99.90
41838;DHT22;27511;52.042;5.178;2024-03-23T12:10:03;9.70;99.90
41838;DHT22;27511;52.042;5.178;2024-03-23T12:12:29;9.90;99.90
41838;DHT22;27511;52.042;5.178;2024-03-23T12:15:03;9.80;99.90
41838;DHT22;27511;52.042;5.178;2024-03-23T12:17:28;10.00;99.90
41838;DHT22;27511;52.042;5.178;2024-03-23T12:19:54;10.20;99.90
41838;DHT22;27511;52.042;5.178;2024-03-23T12:22:23;10.00;99.90
41838;DHT22;27511;52.042;5.178;2024-03-23T12:24:49;10.10;99.90
41838;DHT22;27511;52.042;5.178;2024-03-23T12:27:15;10.00;99.90
41838;DHT22;27511;52.042;5.178;2024-03-23T12:29:41;9.90;99.90
41838;DHT22;27511;52.042;5.178;2024-03-23T12:32:08;10.10;99.90
41838;DHT22;27511;52.042;5.178;2024-03-23T12:34:34;9.80;99.90
41838;DHT22;27511;52.042;5.178;2024-03-23T12:37:00;10.00;99.90
41838;DHT22;27511;52.042;5.178;2024-03-23T12:39:27;9.70;99.90
41838;DHT22;27511;52.042;5.178;2024-03-23T12:41:52;9.60;99.90
41838;DHT22;27511;52.042;5.178;2024-03-23T12:44:18;9.60;99.90
41838;DHT22;27511;52.042;5.178;2024-03-23T12:46:44;9.50;99.90
41838;DHT22;27511;52.042;5.178;2024-03-23T12:49:11;9.70;99.90
41838;DHT22;27511;52.042;5.178;2024-03-23T12:51:37;10.00;99.90
41838;DHT22;27511;52.042;5.178;2024-03-23T12:54:03;10.40;99.90
41838;DHT22;27511;52.042;5.178;2024-03-23T12:56:29;10.70;99.90
41838;DHT22;27511;52.042;5.178;2024-03-23T12:58:55;10.20;99.90
41838;DHT22;27511;52.042;5.178;2024-03-23T13:01:23;10.10;99.90
41838;DHT22;27511;52.042;5.178;2024-03-23T13:03:49;10.40;99.90
41838;DHT22;27511;52.042;5.178;2024-03-23T13:06:15;10.90;99.90
41838;DHT22;27511;52.042;5.178;2024-03-23T13:08:42;10.80;99.90
41838;DHT22;27511;52.042;5.178;2024-03-23T13:11:10;10.80;99.90
41838;DHT22;27511;52.042;5.178;2024-03-23T13:13:36;10.20;99.90
41838;DHT22;27511;52.042;5.178;2024-03-23T13:16:02;8.80;99.90
41838;DHT22;27511;52.042;5.178;2024-03-23T13:18:29;8.10;99.90
41838;DHT22;27511;52.042;5.178;2024-03-23T13:20:55;7.70;99.90
41838;DHT22;27511;52.042;5.178;2024-03-23T13:23:20;7.90;99.90
41838;DHT22;27511;52.042;5.178;2024-03-23T13:25:54;8.30;99.90
41838;DHT22;27511;52.042;5.178;2024-03-23T13:28:24;8.80;99.90
41838;DHT22;27511;52.042;5.178;2024-03-23T13:30:53;9.10;99.90
41838;DHT22;27511;52.042;5.178;2024-03-23T13:33:19;9.10;99.90
41838;DHT22;27511;52.042;5.178;2024-03-23T13:35:52;9.00;99.90
41838;DHT22;27511;52.042;5.178;2024-03-23T13:38:18;8.80;99.90
41838;DHT22;27511;52.042;5.178;2024-03-23T13:40:54;8.90;99.90
41838;DHT22;27511;52.042;5.178;2024-03-23T13:43:20;8.60;99.90
41838;DHT22;27511;52.042;5.178;2024-03-23T13:45:52;8.20;99.90
41838;DHT22;27511;52.042;5.178;2024-03-23T13:48:23;7.90;99.90
41838;DHT22;27511;52.042;5.178;2024-03-23T13:51:02;8.20;99.90
41838;DHT22;27511;52.042;5.178;2024-03-23T13:53:28;9.20;99.90
41838;DHT22;27511;52.042;5.178;2024-03-23T13:55:53;9.40;99.90
41838;DHT22;27511;52.042;5.178;2024-03-23T13:58:20;9.70;99.90
41838;DHT22;27511;52.042;5.178;2024-03-23T14:00:45;10.10;99.90
41838;DHT22;27511;52.042;5.178;2024-03-23T14:03:12;10.30;99.90
41838;DHT22;27511;52.042;5.178;2024-03-23T14:05:38;10.80;99.90
41838;DHT22;27511;52.042;5.178;2024-03-23T14:08:08;11.50;99.90
41838;DHT22;27511;52.042;5.178;2024-03-23T14:10:34;11.90;99.90
41838;DHT22;27511;52.042;5.178;2024-03-23T14:13:01;10.90;99.90
41838;DHT22;27511;52.042;5.178;2024-03-23T14:15:27;10.10;99.90
41838;DHT22;27511;52.042;5.178;2024-03-23T14:17:52;10.00;99.90
41838;DHT22;27511;52.042;5.178;2024-03-23T14:20:20;9.80;99.90
41838;DHT22;27511;52.042;5.178;2024-03-23T14:22:45;10.00;99.90
41838;DHT22;27511;52.042;5.178;2024-03-23T14:25:11;9.80;99.90
41838;DHT22;27511;52.042;5.178;2024-03-23T14:27:36;10.20;99.90
41838;DHT22;27511;52.042;5.178;2024-03-23T14:30:03;10.20;99.90
41838;DHT22;27511;52.042;5.178;2024-03-23T14:32:30;10.50;99.90
41838;DHT22;27511;52.042;5.178;2024-03-23T14:35:02;10.90;99.90
41838;DHT22;27511;52.042;5.178;2024-03-23T14:37:28;11.20;99.90
41838;DHT22;27511;52.042;5.178;2024-03-23T14:39:57;10.90;99.90
41838;DHT22;27511;52.042;5.178;2024-03-23T14:42:23;10.90;99.90
41838;DHT22;27511;52.042;5.178;2024-03-23T14:44:52;10.60;99.90
41838;DHT22;27511;52.042;5.178;2024-03-23T14:47:18;10.60;99.90
41838;DHT22;27511;52.042;5.178;2024-03-23T14:49:44;10.70;99.90
41838;DHT22;27511;52.042;5.178;2024-03-23T14:52:18;10.70;99.90
41838;DHT22;27511;52.042;5.178;2024-03-23T14:54:44;10.30;99.90
41838;DHT22;27511;52.042;5.178;2024-03-23T14:57:10;10.60;99.90
41838;DHT22;27511;52.042;5.178;2024-03-23T14:59:36;10.80;99.90
41838;DHT22;27511;52.042;5.178;2024-03-23T15:02:04;10.50;99.90
41838;DHT22;27511;52.042;5.178;2024-03-23T15:04:29;10.40;99.90
41838;DHT22;27511;52.042;5.178;2024-03-23T15:06:55;10.70;99.90
41838;DHT22;27511;52.042;5.178;2024-03-23T15:09:20;10.30;99.90
41838;DHT22;27511;52.042;5.178;2024-03-23T15:11:46;10.70;99.90
41838;DHT22;27511;52.042;5.178;2024-03-23T15:14:11;11.50;99.90
41838;DHT22;27511;52.042;5.178;2024-03-23T15:16:37;10.70;99.90
41838;DHT22;27511;52.042;5.178;2024-03-23T15:19:03;11.20;99.90
41838;DHT22;27511;52.042;5.178;2024-03-23T15:21:31;11.60;99.90
41838;DHT22;27511;52.042;5.178;2024-03-23T15:23:57;10.90;99.90
41838;DHT22;27511;52.042;5.178;2024-03-23T15:26:23;11.30;99.90
41838;DHT22;27511;52.042;5.178;2024-03-23T15:28:49;11.30;99.90
41838;DHT22;27511;52.042;5.178;2024-03-23T15:31:23;11.70;99.90
41838;DHT22;27511;52.042;5.178;2024-03-23T15:33:49;11.10;99.90
41838;DHT22;27511;52.042;5.178;2024-03-23T15:36:15;10.90;99.90
41838;DHT22;27511;52.042;5.178;2024-03-23T15:38:40;11.00;99.90
41838;DHT22;27511;52.042;5.178;2024-03-23T15:41:06;10.80;99.90
41838;DHT22;27511;52.042;5.178;2024-03-23T15:43:33;10.60;99.90
41838;DHT22;27511;52.042;5.178;2024-03-23T15:48:25;10.50;99.90
41838;DHT22;27511;52.042;5.178;2024-03-23T15:50:53;11.00;99.90
41838;DHT22;27511;52.042;5.178;2024-03-23T15:53:19;11.00;99.90
41838;DHT22;27511;52.042;5.178;2024-03-23T15:55:46;11.30;99.90
41838;DHT22;27511;52.042;5.178;2024-03-23T15:58:11;11.30;99.90
41838;DHT22;27511;52.042;5.178;2024-03-23T16:00:37;11.20;99.90
41838;DHT22;27511;52.042;5.178;2024-03-23T16:03:03;10.90;99.90
41838;DHT22;27511;52.042;5.178;2024-03-23T16:05:28;11.10;99.90
41838;DHT22;27511;52.042;5.178;2024-03-23T16:07:54;11.20;99.90
41838;DHT22;27511;52.042;5.178;2024-03-23T16:10:20;11.10;99.90
41838;DHT22;27511;52.042;5.178;2024-03-23T16:12:45;11.00;99.90
41838;DHT22;27511;52.042;5.178;2024-03-23T16:15:11;10.70;99.90
41838;DHT22;27511;52.042;5.178;2024-03-23T16:17:36;10.40;99.90
41838;DHT22;27511;52.042;5.178;2024-03-23T16:20:03;10.30;99.90
41838;DHT22;27511;52.042;5.178;2024-03-23T16:22:29;10.40;99.90
41838;DHT22;27511;52.042;5.178;2024-03-23T16:24:55;10.40;99.90
41838;DHT22;27511;52.042;5.178;2024-03-23T16:27:21;10.10;99.90
41838;DHT22;27511;52.042;5.178;2024-03-23T16:29:46;10.20;99.90
41838;DHT22;27511;52.042;5.178;2024-03-23T16:32:12;10.20;99.90
41838;DHT22;27511;52.042;5.178;2024-03-23T16:34:37;10.00;99.90